Time;durP1;ratioP1;P1;durP2;ratioP2;P2;SDS_P1;SDS_P2;PMS_P1;PMS_P2;Temp;Humidity;BMP_temperature;BMP_pressure;BME280_temperature;BME280_humidity;BME280_pressure;Samples;Min_cycle;Max_cycle;Signal;HPM_P1;HPM_P2
2022/12/19 00:00:03;;;;;;;9.07;7.28;;;19.40;28.70;;;;;;5053962;28;20064;-58
2022/12/19 00:02:38;;;;;;;8.10;6.45;;;19.40;28.70;;;;;;5045201;28;20068;-51
2022/12/19 00:05:04;;;;;;;9.10;6.70;;;19.30;28.80;;;;;;5056246;28;20068;-49
2022/12/19 00:07:30;;;;;;;7.60;6.22;;;19.40;28.80;;;;;;5056805;28;20113;-49
2022/12/19 00:09:55;;;;;;;8.73;6.50;;;19.30;28.80;;;;;;5039661;28;20435;-50
2022/12/19 00:12:24;;;;;;;8.73;6.65;;;19.30;28.80;;;;;;5036351;28;20034;-51
2022/12/19 00:14:50;;;;;;;8.02;6.25;;;19.30;28.80;;;;;;5051799;28;20467;-53
2022/12/19 00:17:16;;;;;;;8.77;6.75;;;19.30;28.90;;;;;;5056544;28;20081;-51
2022/12/19 00:19:42;;;;;;;9.65;7.38;;;19.30;28.90;;;;;;5048799;28;20030;-47
2022/12/19 00:22:08;;;;;;;8.07;6.32;;;19.30;28.90;;;;;;5053368;28;20036;-50
2022/12/19 00:24:33;;;;;;;8.05;6.35;;;19.30;28.90;;;;;;5055436;28;20037;-47
2022/12/19 00:26:59;;;;;;;8.98;6.50;;;19.30;28.90;;;;;;5056544;28;20033;-50
2022/12/19 00:29:26;;;;;;;10.50;6.32;;;19.30;28.90;;;;;;5044533;28;20041;-48
2022/12/19 00:31:52;;;;;;;8.10;6.40;;;19.30;29.00;;;;;;5042603;28;20341;-48
2022/12/19 00:34:18;;;;;;;8.73;6.30;;;19.30;29.00;;;;;;5056302;28;20025;-52
2022/12/19 00:36:44;;;;;;;8.63;6.60;;;19.30;29.00;;;;;;5055966;28;20029;-51
2022/12/19 00:39:10;;;;;;;8.40;6.57;;;19.20;29.00;;;;;;5037567;28;20021;-50
2022/12/19 00:41:39;;;;;;;8.63;6.47;;;19.20;29.00;;;;;;5055837;28;20051;-48
2022/12/19 00:44:08;;;;;;;8.40;6.28;;;19.20;29.10;;;;;;5038608;28;20459;-48
2022/12/19 00:46:35;;;;;;;7.68;6.43;;;19.20;29.10;;;;;;5056127;28;20119;-51
2022/12/19 00:49:01;;;;;;;7.78;6.10;;;19.20;29.20;;;;;;5028093;28;20497;-49
2022/12/19 00:51:31;;;;;;;9.02;6.35;;;19.20;29.20;;;;;;5047253;28;20025;-52
2022/12/19 00:53:58;;;;;;;8.13;6.13;;;19.20;29.20;;;;;;5024464;28;20064;-46
2022/12/19 00:56:26;;;;;;;7.55;6.45;;;19.20;29.30;;;;;;5053237;28;20516;-47
2022/12/19 00:58:53;;;;;;;9.02;6.65;;;19.20;29.30;;;;;;5056302;28;20143;-46
2022/12/19 01:01:29;;;;;;;7.65;6.15;;;19.20;29.30;;;;;;5038239;28;20115;-46
2022/12/19 01:03:57;;;;;;;8.40;6.28;;;19.20;29.40;;;;;;5036924;28;20412;-48
2022/12/19 01:06:23;;;;;;;8.27;6.10;;;19.10;29.40;;;;;;5047693;28;20081;-50
2022/12/19 01:08:49;;;;;;;8.32;6.18;;;19.10;29.40;;;;;;5049685;28;20112;-49
2022/12/19 01:11:15;;;;;;;7.80;6.32;;;19.10;29.40;;;;;;5027713;28;20124;-49
2022/12/19 01:13:41;;;;;;;8.50;6.25;;;19.10;29.40;;;;;;5053029;28;20068;-48
2022/12/19 01:16:11;;;;;;;7.75;6.00;;;19.10;29.50;;;;;;5036580;28;20049;-50
2022/12/19 01:18:37;;;;;;;7.10;6.00;;;19.10;29.50;;;;;;5020037;28;20039;-49
2022/12/19 01:21:06;;;;;;;8.43;6.38;;;19.10;29.50;;;;;;5018166;28;20106;-48
2022/12/19 01:23:33;;;;;;;8.35;5.88;;;19.10;29.60;;;;;;5058274;28;20048;-46
2022/12/19 01:25:59;;;;;;;7.82;6.00;;;19.10;29.60;;;;;;5037410;28;20072;-46
2022/12/19 01:28:25;;;;;;;8.15;5.88;;;19.10;29.70;;;;;;5036177;28;20480;-47
2022/12/19 01:30:58;;;;;;;8.20;6.57;;;19.10;29.70;;;;;;5055189;28;20025;-48
2022/12/19 01:33:24;;;;;;;7.53;5.82;;;19.00;29.70;;;;;;5052637;28;20029;-47
2022/12/19 01:35:50;;;;;;;8.30;6.18;;;19.00;29.70;;;;;;5037397;28;20017;-49
2022/12/19 01:38:18;;;;;;;8.55;5.50;;;19.00;29.70;;;;;;5053890;28;20462;-48
2022/12/19 01:40:52;;;;;;;6.65;5.60;;;19.00;29.80;;;;;;5055516;28;20029;-48
2022/12/19 01:43:20;;;;;;;7.43;6.10;;;19.00;29.80;;;;;;5037470;28;20052;-51
2022/12/19 01:45:59;;;;;;;7.80;6.05;;;19.00;29.90;;;;;;5035927;28;20456;-49
2022/12/19 01:48:38;;;;;;;7.30;5.80;;;19.00;30.00;;;;;;5054525;28;20513;-49
2022/12/19 01:51:13;;;;;;;9.07;5.75;;;19.00;30.00;;;;;;5040201;28;20056;-48
2022/12/19 01:53:55;;;;;;;8.35;6.40;;;19.00;30.50;;;;;;5055389;28;20318;-52
2022/12/19 01:56:30;;;;;;;7.47;5.57;;;19.00;30.00;;;;;;5053596;28;20040;-51
2022/12/19 01:59:01;;;;;;;8.00;6.13;;;19.00;30.00;;;;;;5030865;28;20033;-49
2022/12/19 02:01:27;;;;;;;7.85;5.93;;;18.90;30.00;;;;;;5053871;28;20349;-52
2022/12/19 02:03:55;;;;;;;7.95;5.90;;;19.00;30.00;;;;;;5054531;28;20035;-52
2022/12/19 02:06:21;;;;;;;7.72;6.28;;;19.00;30.10;;;;;;5020976;28;20141;-49
2022/12/19 02:08:50;;;;;;;8.68;6.05;;;18.90;30.10;;;;;;5036282;28;20037;-53
2022/12/19 02:11:16;;;;;;;7.28;5.78;;;19.00;30.20;;;;;;5035108;28;20471;-52
2022/12/19 02:13:42;;;;;;;7.35;5.78;;;18.90;30.20;;;;;;5053728;28;20024;-49
2022/12/19 02:16:25;;;;;;;7.20;6.00;;;18.90;30.30;;;;;;5054519;28;20064;-49
2022/12/19 02:19:17;;;;;;;8.07;5.68;;;18.90;30.30;;;;;;5035487;28;20035;-54
2022/12/19 02:22:23;;;;;;;8.82;6.20;;;18.90;30.30;;;;;;5025078;28;20483;-48
2022/12/19 02:25:24;;;;;;;7.07;5.65;;;18.90;30.40;;;;;;5053062;28;20033;-48
2022/12/19 02:28:09;;;;;;;7.07;5.88;;;18.90;30.40;;;;;;5027734;28;20045;-51
2022/12/19 02:30:46;;;;;;;7.90;6.20;;;18.90;30.40;;;;;;5041204;28;20037;-51
2022/12/19 02:33:34;;;;;;;6.80;5.32;;;18.90;30.50;;;;;;5035988;28;20111;-48
2022/12/19 02:36:11;;;;;;;8.00;5.70;;;18.90;30.50;;;;;;5040370;28;20029;-50
2022/12/19 02:38:45;;;;;;;7.32;6.13;;;18.80;30.50;;;;;;5020745;28;20037;-50
2022/12/19 02:41:41;;;;;;;7.95;6.15;;;18.90;30.60;;;;;;5020688;28;20072;-49
2022/12/19 02:44:18;;;;;;;7.32;5.90;;;18.80;30.60;;;;;;5020960;28;20021;-49
2022/12/19 02:46:46;;;;;;;7.93;6.03;;;18.80;30.60;;;;;;5030404;28;20049;-48
2022/12/19 02:49:13;;;;;;;8.07;5.93;;;18.80;30.60;;;;;;5040291;28;20044;-50
2022/12/19 02:51:39;;;;;;;7.95;5.88;;;18.80;30.70;;;;;;5041240;28;20029;-50
2022/12/19 02:54:08;;;;;;;7.43;6.22;;;18.80;30.70;;;;;;5039761;28;20116;-48
2022/12/19 02:56:52;;;;;;;7.65;6.05;;;18.80;30.70;;;;;;5022904;28;20375;-47
2022/12/19 02:59:39;;;;;;;8.68;6.15;;;18.80;30.70;;;;;;5058345;28;20033;-49
2022/12/19 03:02:30;;;;;;;7.15;5.45;;;18.80;30.80;;;;;;5040385;28;20033;-50
2022/12/19 03:05:05;;;;;;;7.72;6.05;;;18.80;30.90;;;;;;5040391;28;20037;-49
2022/12/19 03:07:55;;;;;;;7.53;6.00;;;18.80;30.90;;;;;;5033417;28;20439;-51
2022/12/19 03:10:56;;;;;;;8.25;5.82;;;18.80;31.00;;;;;;5040544;28;20043;-52
2022/12/19 03:13:43;;;;;;;7.07;5.90;;;18.70;31.00;;;;;;5040271;28;20137;-51
2022/12/19 03:16:11;;;;;;;6.82;6.05;;;18.70;30.90;;;;;;5035693;28;20053;-49
2022/12/19 03:18:37;;;;;;;8.05;5.90;;;18.70;30.90;;;;;;5034974;28;20124;-52
2022/12/19 03:21:22;;;;;;;7.28;5.78;;;18.70;31.00;;;;;;5036833;28;20184;-49
2022/12/19 03:23:51;;;;;;;8.27;6.32;;;18.70;31.10;;;;;;5037308;28;20464;-50
2022/12/19 03:26:20;;;;;;;7.18;5.30;;;18.70;31.10;;;;;;5037505;28;20326;-51
2022/12/19 03:28:55;;;;;;;8.35;5.95;;;18.70;31.10;;;;;;5022594;28;20434;-56
2022/12/19 03:31:22;;;;;;;;;;;18.70;31.20;;;;;;5017038;28;20022;-52
2022/12/19 03:33:53;;;;;;;7.32;5.80;;;18.70;31.30;;;;;;5036864;28;20222;-52
2022/12/19 03:36:24;;;;;;;7.53;5.50;;;18.70;31.30;;;;;;5036833;28;20040;-50
2022/12/19 03:38:50;;;;;;;8.13;5.68;;;18.70;31.30;;;;;;5021999;28;20026;-50
2022/12/19 03:43:07;;;;;;;7.13;5.38;;;18.70;31.40;;;;;;5017576;28;20025;-52
2022/12/19 03:44:08;;;;;;;7.85;6.30;;;18.60;31.40;;;;;;5022113;28;20396;-53
2022/12/19 03:46:38;;;;;;;7.00;5.22;;;18.60;31.50;;;;;;5037502;28;20025;-53
2022/12/19 03:49:04;;;;;;;6.78;5.15;;;18.60;31.50;;;;;;5035977;28;20461;-51
2022/12/19 03:51:54;;;;;;;8.38;6.00;;;18.60;31.50;;;;;;5017532;28;20092;-53
2022/12/19 03:54:30;;;;;;;7.40;5.72;;;18.60;31.60;;;;;;5017198;28;20036;-52
2022/12/19 03:57:08;;;;;;;6.93;5.18;;;18.60;31.60;;;;;;5031364;28;20033;-54
2022/12/19 03:59:55;;;;;;;7.25;5.43;;;18.60;31.70;;;;;;5021953;28;20485;-55
2022/12/19 04:02:22;;;;;;;7.40;5.30;;;18.60;31.70;;;;;;5027466;28;20039;-54
2022/12/19 04:04:54;;;;;;;7.13;5.32;;;18.60;31.70;;;;;;5035887;28;20058;-51
2022/12/19 04:07:22;;;;;;;8.55;5.18;;;18.60;31.80;;;;;;5035110;28;20463;-51
2022/12/19 04:09:49;;;;;;;6.72;4.80;;;18.60;31.80;;;;;;5036895;28;20022;-51
2022/12/19 04:12:19;;;;;;;5.90;4.93;;;18.60;31.90;;;;;;5037234;28;20095;-49
2022/12/19 04:14:46;;;;;;;6.28;5.40;;;18.60;31.90;;;;;;5033511;28;20040;-49
2022/12/19 04:17:18;;;;;;;6.53;5.22;;;18.60;31.90;;;;;;5052817;28;20044;-50
2022/12/19 04:20:03;;;;;;;5.82;4.75;;;18.60;32.00;;;;;;5054686;28;20475;-49
2022/12/19 04:22:36;;;;;;;6.28;5.20;;;18.60;32.00;;;;;;5058722;28;20021;-52
2022/12/19 04:25:03;;;;;;;7.07;5.25;;;18.50;32.00;;;;;;5048857;28;20091;-54
2022/12/19 04:27:36;;;;;;;6.38;5.05;;;18.60;32.10;;;;;;5036001;28;20092;-51
2022/12/19 04:30:07;;;;;;;6.53;5.10;;;18.60;32.10;;;;;;5036507;28;20120;-51
2022/12/19 04:32:35;;;;;;;6.93;5.47;;;18.50;32.10;;;;;;5045530;28;20021;-52
2022/12/19 04:35:01;;;;;;;6.00;4.95;;;18.50;32.10;;;;;;5043551;28;20103;-48
2022/12/19 04:37:29;;;;;;;6.05;4.70;;;18.50;32.20;;;;;;5051242;28;20029;-52
2022/12/19 04:39:55;;;;;;;6.05;4.60;;;18.50;32.20;;;;;;5054714;28;20095;-50
2022/12/19 04:42:21;;;;;;;6.20;4.57;;;18.50;32.30;;;;;;5056329;28;20028;-49
2022/12/19 04:44:47;;;;;;;6.65;5.20;;;18.50;32.40;;;;;;5056477;28;20470;-51
2022/12/19 04:47:13;;;;;;;6.90;5.05;;;18.50;32.40;;;;;;5040760;28;20068;-50
2022/12/19 04:49:38;;;;;;;6.05;4.88;;;18.50;32.40;;;;;;5035503;28;20045;-47
2022/12/19 04:52:04;;;;;;;6.10;4.55;;;18.50;32.50;;;;;;5038964;28;20436;-51
2022/12/19 04:54:31;;;;;;;5.82;4.38;;;18.50;32.60;;;;;;5054481;28;20032;-52
2022/12/19 04:56:57;;;;;;;5.40;4.25;;;18.50;32.60;;;;;;5055514;28;20033;-49
2022/12/19 04:59:23;;;;;;;5.95;4.35;;;18.50;32.70;;;;;;5055852;28;20032;-49
2022/12/19 05:01:49;;;;;;;5.90;4.45;;;18.50;32.80;;;;;;5056133;28;20565;-52
2022/12/19 05:04:15;;;;;;;4.70;3.80;;;18.50;32.80;;;;;;5054659;28;20487;-49
2022/12/19 05:06:40;;;;;;;5.65;3.90;;;18.50;32.90;;;;;;5054958;28;20028;-50
2022/12/19 05:09:08;;;;;;;7.47;4.32;;;18.50;32.90;;;;;;5018631;28;20033;-50
2022/12/19 05:11:34;;;;;;;5.38;3.95;;;18.50;33.00;;;;;;5037525;28;20425;-54
2022/12/19 05:14:00;;;;;;;5.40;3.97;;;18.50;33.10;;;;;;5055629;28;20031;-46
2022/12/19 05:16:26;;;;;;;5.18;3.90;;;18.40;33.10;;;;;;5051139;28;20098;-49
2022/12/19 05:18:53;;;;;;;4.93;4.05;;;18.40;33.10;;;;;;5037081;28;20033;-47
2022/12/19 05:21:20;;;;;;;5.53;3.70;;;18.40;33.20;;;;;;5035436;28;20038;-49
2022/12/19 05:23:46;;;;;;;5.47;4.10;;;18.40;33.20;;;;;;5046289;28;20040;-52
2022/12/19 05:26:12;;;;;;;4.18;3.50;;;18.40;33.30;;;;;;5034906;28;20025;-49
2022/12/19 05:28:38;;;;;;;5.50;4.00;;;18.40;33.40;;;;;;5043088;28;20025;-49
2022/12/19 05:31:10;;;;;;;4.80;3.63;;;18.40;33.40;;;;;;5054234;28;20056;-49
2022/12/19 05:33:37;;;;;;;4.35;3.90;;;18.40;33.40;;;;;;5020710;28;20314;-50
2022/12/19 05:36:04;;;;;;;5.32;4.18;;;18.40;34.10;;;;;;5034808;28;20461;-47
2022/12/19 05:38:30;;;;;;;5.10;3.80;;;18.40;33.50;;;;;;5035051;28;20068;-47
2022/12/19 05:40:56;;;;;;;4.82;3.67;;;18.40;33.60;;;;;;5045610;28;20083;-47
2022/12/19 05:43:23;;;;;;;5.07;3.67;;;18.40;33.70;;;;;;5055085;28;20027;-51
2022/12/19 05:45:48;;;;;;;4.57;3.88;;;18.40;33.70;;;;;;5054701;28;20471;-52
2022/12/19 05:48:14;;;;;;;4.60;3.83;;;18.40;33.80;;;;;;5039894;28;20045;-53
2022/12/19 05:50:40;;;;;;;4.22;3.28;;;18.40;33.80;;;;;;5034451;28;20452;-52
2022/12/19 05:53:09;;;;;;;5.63;3.65;;;18.40;33.90;;;;;;5048415;28;20083;-50
2022/12/19 05:55:35;;;;;;;4.13;3.38;;;18.40;33.90;;;;;;5054678;28;20474;-50
2022/12/19 05:58:01;;;;;;;5.00;3.72;;;18.40;34.00;;;;;;5055071;28;20163;-50
2022/12/19 06:00:27;;;;;;;4.63;3.70;;;18.40;34.00;;;;;;5054012;28;20167;-51
2022/12/19 06:02:53;;;;;;;3.65;3.03;;;18.40;34.00;;;;;;5053580;28;20090;-47
2022/12/19 06:05:19;;;;;;;4.85;3.40;;;18.40;34.10;;;;;;5049854;28;20127;-54
2022/12/19 06:07:45;;;;;;;6.63;3.58;;;18.40;34.20;;;;;;5038806;28;20045;-50
2022/12/19 06:10:11;;;;;;;4.82;3.50;;;18.40;34.20;;;;;;5054787;28;20111;-48
2022/12/19 06:12:36;;;;;;;4.75;3.53;;;18.40;34.20;;;;;;5054403;28;20433;-49
2022/12/19 06:15:03;;;;;;;4.22;3.25;;;18.30;34.20;;;;;;5054594;28;20047;-49
2022/12/19 06:17:28;;;;;;;3.95;3.30;;;18.30;34.30;;;;;;5050586;28;20432;-50
2022/12/19 06:19:54;;;;;;;4.10;3.10;;;18.30;34.30;;;;;;5053484;28;20091;-50
2022/12/19 06:22:20;;;;;;;4.43;3.30;;;18.40;34.40;;;;;;5020227;28;20103;-47
2022/12/19 06:24:46;;;;;;;4.50;3.47;;;18.30;34.40;;;;;;5054850;28;20036;-50
2022/12/19 06:27:12;;;;;;;4.13;3.20;;;18.30;34.50;;;;;;5035696;28;20456;-52
2022/12/19 06:29:37;;;;;;;4.10;3.10;;;18.30;34.50;;;;;;5048892;28;20108;-52
2022/12/19 06:32:03;;;;;;;3.35;2.63;;;18.30;34.60;;;;;;5050790;28;20037;-52
2022/12/19 06:34:29;;;;;;;3.33;2.53;;;18.30;34.60;;;;;;5034307;28;20029;-48
2022/12/19 06:36:55;;;;;;;3.60;2.67;;;18.30;34.60;;;;;;5038870;28;20352;-48
2022/12/19 06:39:21;;;;;;;2.58;1.90;;;18.30;34.70;;;;;;5054187;28;20033;-51
2022/12/19 06:44:32;;;;;;;3.35;2.75;;;18.30;34.80;;;;;;5034198;28;20046;-45
2022/12/19 06:46:57;;;;;;;3.35;2.20;;;18.30;34.90;;;;;;5036985;28;20441;-52
2022/12/19 06:49:23;;;;;;;3.28;2.60;;;18.30;34.90;;;;;;5036643;28;20097;-53
2022/12/19 06:51:49;;;;;;;3.85;2.53;;;18.30;35.00;;;;;;5049695;28;20087;-48
2022/12/19 06:54:15;;;;;;;2.88;2.22;;;18.30;35.10;;;;;;5017099;28;20033;-47
2022/12/19 06:56:42;;;;;;;3.97;2.67;;;18.30;35.10;;;;;;5034541;28;20060;-51
2022/12/19 06:59:11;;;;;;;2.75;2.08;;;18.30;35.20;;;;;;5035715;28;20029;-49
2022/12/19 07:01:49;;;;;;;3.33;2.28;;;18.30;35.30;;;;;;5051568;28;20033;-51
2022/12/19 07:04:21;;;;;;;2.90;2.40;;;18.30;35.30;;;;;;5054223;28;20143;-50
2022/12/19 07:06:47;;;;;;;2.72;2.13;;;18.30;35.40;;;;;;5054588;28;20466;-47
2022/12/19 07:09:13;;;;;;;3.15;2.42;;;18.30;35.40;;;;;;5054200;28;20029;-53
2022/12/19 07:11:38;;;;;;;2.95;2.33;;;18.30;35.50;;;;;;5054766;28;20108;-50
2022/12/19 07:14:05;;;;;;;2.83;2.17;;;18.30;35.50;;;;;;5051745;28;20049;-50
2022/12/19 07:16:31;;;;;;;3.03;2.40;;;18.30;35.60;;;;;;5016799;28;20046;-50
2022/12/19 07:18:58;;;;;;;3.40;2.28;;;18.30;35.70;;;;;;5018117;28;20053;-49
2022/12/19 07:21:24;;;;;;;2.70;2.20;;;18.30;35.80;;;;;;5026474;28;20041;-53
2022/12/19 07:23:50;;;;;;;3.35;2.33;;;18.30;35.80;;;;;;5036638;28;20389;-50
2022/12/19 07:26:16;;;;;;;2.88;2.17;;;18.30;36.00;;;;;;5018152;28;20097;-52
2022/12/19 07:28:43;;;;;;;3.80;2.45;;;18.30;36.10;;;;;;5034411;28;20471;-47
2022/12/19 07:31:09;;;;;;;2.50;2.03;;;18.30;36.30;;;;;;5031415;28;20033;-53
2022/12/19 07:33:35;;;;;;;2.47;1.88;;;18.20;36.30;;;;;;5032014;28;20033;-50
2022/12/19 07:36:01;;;;;;;1.95;1.65;;;18.30;36.50;;;;;;5034525;28;20026;-51
2022/12/19 07:38:27;;;;;;;2.10;1.70;;;18.20;37.20;;;;;;5026729;28;20041;-51
2022/12/19 07:40:53;;;;;;;2.25;1.75;;;18.20;36.70;;;;;;5031925;28;20417;-52
2022/12/19 07:43:19;;;;;;;7.40;2.10;;;18.20;36.80;;;;;;5036533;28;20022;-54
2022/12/19 07:45:44;;;;;;;2.85;1.95;;;18.20;37.00;;;;;;5031182;28;20033;-54
2022/12/19 07:48:10;;;;;;;2.67;1.80;;;18.20;37.00;;;;;;5029343;28;20052;-53
2022/12/19 07:50:36;;;;;;;4.30;1.40;;;18.20;37.00;;;;;;5032399;28;20041;-52
2022/12/19 07:53:02;;;;;;;5.45;1.77;;;18.20;37.00;;;;;;5025751;28;20029;-50
2022/12/19 07:55:28;;;;;;;1.83;1.38;;;18.30;37.00;;;;;;5028943;28;20026;-52
2022/12/19 07:57:54;;;;;;;2.45;1.45;;;18.30;37.00;;;;;;5035509;28;20029;-52
2022/12/19 08:00:20;;;;;;;2.15;1.50;;;18.30;37.10;;;;;;5035334;28;20025;-54
2022/12/19 08:02:46;;;;;;;2.78;1.60;;;18.30;37.00;;;;;;5036306;28;20034;-54
2022/12/19 08:05:12;;;;;;;3.10;1.80;;;18.40;37.00;;;;;;5035087;28;20040;-52
2022/12/19 08:07:38;;;;;;;2.85;1.50;;;18.50;37.10;;;;;;5015895;28;20366;-50
2022/12/19 08:10:05;;;;;;;1.95;1.33;;;18.50;37.10;;;;;;5032346;28;20029;-51
2022/12/19 08:12:34;;;;;;;2.95;1.40;;;18.60;37.00;;;;;;5032727;28;20022;-52
2022/12/19 08:15:00;;;;;;;3.47;1.38;;;18.60;37.00;;;;;;5037388;28;20369;-51
2022/12/19 08:17:26;;;;;;;1.73;1.35;;;18.70;37.00;;;;;;5047587;28;20041;-51
2022/12/19 08:19:52;;;;;;;3.35;1.17;;;18.80;37.00;;;;;;5053756;28;20360;-51
2022/12/19 08:22:17;;;;;;;3.42;1.58;;;18.90;36.90;;;;;;5048968;28;20029;-50
2022/12/19 08:24:43;;;;;;;3.53;1.17;;;19.00;36.90;;;;;;5076537;28;20112;-52
2022/12/19 08:27:09;;;;;;;1.75;1.48;;;19.00;36.80;;;;;;5056732;28;20080;-53
2022/12/19 08:29:35;;;;;;;1.92;1.40;;;19.10;36.80;;;;;;5036071;28;20034;-54
2022/12/19 08:32:01;;;;;;;2.30;1.20;;;19.20;36.80;;;;;;5051010;28;20086;-49
2022/12/19 08:34:26;;;;;;;2.20;1.30;;;19.20;36.70;;;;;;5037968;28;20440;-52
2022/12/19 08:36:52;;;;;;;1.98;1.20;;;19.30;36.70;;;;;;5053890;28;20104;-51
2022/12/19 08:39:18;;;;;;;1.73;1.20;;;19.40;36.70;;;;;;5038374;28;20389;-52
2022/12/19 08:41:44;;;;;;;1.25;0.70;;;19.50;36.60;;;;;;5052404;28;20033;-54
2022/12/19 08:44:11;;;;;;;1.38;1.00;;;19.50;36.60;;;;;;5049581;28;20033;-49
2022/12/19 08:46:37;;;;;;;1.80;1.10;;;19.60;36.60;;;;;;5021122;28;20040;-54
2022/12/19 08:49:03;;;;;;;1.85;1.23;;;19.70;36.60;;;;;;5055608;28;20025;-50
2022/12/19 08:51:28;;;;;;;2.65;1.48;;;19.80;36.60;;;;;;5053749;28;20025;-48
2022/12/19 08:53:54;;;;;;;1.75;0.90;;;19.80;36.50;;;;;;5054171;28;21329;-50
2022/12/19 08:56:21;;;;;;;2.30;1.15;;;19.90;36.50;;;;;;5052365;28;20025;-53
2022/12/19 08:58:49;;;;;;;3.25;1.27;;;19.90;36.40;;;;;;5052448;28;20021;-52
2022/12/19 09:01:22;;;;;;;2.17;1.50;;;20.00;36.40;;;;;;5052848;28;20127;-54
2022/12/19 09:03:48;;;;;;;2.40;1.63;;;20.10;36.50;;;;;;5055179;28;20033;-51
2022/12/19 09:06:15;;;;;;;2.65;2.08;;;20.10;36.40;;;;;;5053010;28;20130;-51
2022/12/19 09:08:42;;;;;;;2.95;1.90;;;20.20;36.30;;;;;;5044049;28;20056;-50
2022/12/19 09:11:15;;;;;;;4.90;2.38;;;20.20;36.30;;;;;;5043183;28;20476;-54
2022/12/19 09:13:42;;;;;;;2.80;2.08;;;20.30;36.30;;;;;;5044692;28;20037;-50
2022/12/19 09:16:12;;;;;;;3.28;2.30;;;20.30;36.20;;;;;;5042851;28;20055;-51
2022/12/19 09:18:38;;;;;;;3.33;1.98;;;20.40;36.20;;;;;;5042534;28;20029;-50
2022/12/19 09:21:04;;;;;;;3.08;2.20;;;20.40;36.20;;;;;;5045826;28;20033;-53
2022/12/19 09:23:32;;;;;;;3.47;2.45;;;20.50;36.20;;;;;;5028059;28;20033;-52
2022/12/19 09:26:07;;;;;;;3.13;2.53;;;20.50;36.20;;;;;;5046329;28;20128;-51
2022/12/19 09:28:34;;;;;;;5.30;2.60;;;20.60;36.10;;;;;;5044411;28;20040;-52
2022/12/19 09:31:03;;;;;;;3.28;2.47;;;20.60;35.80;;;;;;5025228;28;20037;-54
2022/12/19 09:33:31;;;;;;;2.85;2.40;;;20.70;35.50;;;;;;5025607;28;20029;-49
2022/12/19 09:35:59;;;;;;;3.70;2.42;;;20.70;35.40;;;;;;5043722;28;20048;-56
2022/12/19 09:38:26;;;;;;;2.92;2.40;;;20.70;35.40;;;;;;5043862;28;20025;-52
2022/12/19 09:40:57;;;;;;;3.55;2.45;;;20.70;35.40;;;;;;5043363;28;20030;-52
2022/12/19 09:43:44;;;;;;;4.70;2.55;;;20.80;35.50;;;;;;5043703;28;20033;-50
2022/12/19 09:46:18;;;;;;;3.33;2.38;;;20.80;35.50;;;;;;5041797;28;20057;-55
2022/12/19 09:48:46;;;;;;;2.65;2.25;;;20.90;35.60;;;;;;5043209;28;20468;-51
2022/12/19 09:51:34;;;;;;;2.90;2.40;;;20.90;35.60;;;;;;5041606;28;20322;-51
2022/12/19 09:54:19;;;;;;;3.35;2.22;;;20.90;35.60;;;;;;5043282;28;20075;-51
2022/12/19 09:56:46;;;;;;;4.57;2.78;;;21.00;35.70;;;;;;5042493;28;20038;-53
2022/12/19 09:59:18;;;;;;;3.47;2.42;;;21.00;35.70;;;;;;5044315;28;20040;-51
2022/12/19 10:02:02;;;;;;;3.05;2.42;;;21.00;35.70;;;;;;5043390;28;20348;-51
2022/12/19 10:04:32;;;;;;;3.53;2.65;;;21.00;35.70;;;;;;5043611;28;20035;-53
2022/12/19 10:06:58;;;;;;;4.53;2.90;;;21.10;35.70;;;;;;5045257;28;20456;-48
2022/12/19 10:09:31;;;;;;;4.50;3.05;;;21.10;35.70;;;;;;5042610;28;20098;-49
2022/12/19 10:12:15;;;;;;;3.67;2.90;;;21.10;35.70;;;;;;5045711;28;20499;-51
2022/12/19 10:15:02;;;;;;;4.13;2.97;;;21.10;35.70;;;;;;5022688;28;20040;-51
2022/12/19 10:17:43;;;;;;;4.35;3.17;;;21.10;35.70;;;;;;5041489;28;20046;-49
2022/12/19 10:20:22;;;;;;;3.83;3.00;;;21.20;35.70;;;;;;5043238;28;20032;-50
2022/12/19 10:23:04;;;;;;;5.50;3.58;;;21.20;35.70;;;;;;5044063;28;20041;-50
2022/12/19 10:25:42;;;;;;;5.03;3.67;;;21.20;35.70;;;;;;5043783;28;20499;-50
2022/12/19 10:28:11;;;;;;;4.72;3.67;;;21.20;35.70;;;;;;5040846;28;20044;-49
2022/12/19 10:30:44;;;;;;;4.07;3.50;;;21.20;35.70;;;;;;5041898;28;20025;-53
2022/12/19 10:33:39;;;;;;;4.25;3.60;;;21.20;35.70;;;;;;5042457;28;20025;-52
2022/12/19 10:36:10;;;;;;;5.10;3.78;;;21.20;35.70;;;;;;5043455;28;20499;-52
2022/12/19 10:38:38;;;;;;;5.95;4.00;;;21.20;35.80;;;;;;5044050;28;20032;-48
2022/12/19 10:41:20;;;;;;;5.43;3.90;;;21.20;35.80;;;;;;5044167;28;20025;-51
2022/12/19 10:44:06;;;;;;;4.78;3.85;;;21.20;35.80;;;;;;5042345;28;20087;-51
2022/12/19 10:46:46;;;;;;;5.07;4.13;;;21.20;35.80;;;;;;5043005;28;20029;-50
2022/12/19 10:49:26;;;;;;;6.03;4.50;;;21.20;35.80;;;;;;5046795;28;20152;-52
2022/12/19 10:52:12;;;;;;;5.00;4.38;;;21.20;36.50;;;;;;5027757;28;20025;-50
2022/12/19 10:54:41;;;;;;;7.45;5.07;;;21.20;35.90;;;;;;5029563;28;20037;-54
2022/12/19 10:57:27;;;;;;;6.35;5.00;;;21.20;35.90;;;;;;5045715;28;20102;-50
2022/12/19 11:00:16;;;;;;;6.55;5.28;;;21.20;35.90;;;;;;5046031;28;20033;-52
2022/12/19 11:02:44;;;;;;;7.53;5.82;;;21.20;36.00;;;;;;5047999;28;20048;-49
2022/12/19 11:05:37;;;;;;;7.68;5.75;;;21.20;35.90;;;;;;5045323;28;20033;-50
2022/12/19 11:08:25;;;;;;;7.75;5.13;;;21.20;35.70;;;;;;5048286;28;20049;-51
2022/12/19 11:11:02;;;;;;;6.85;5.15;;;21.20;35.70;;;;;;5050802;28;20044;-49
2022/12/19 11:13:29;;;;;;;7.20;5.38;;;21.20;35.70;;;;;;5055571;28;20021;-51
2022/12/19 11:15:58;;;;;;;6.07;5.10;;;21.20;35.70;;;;;;5057334;28;20044;-52
2022/12/19 11:18:36;;;;;;;7.07;5.65;;;21.20;35.80;;;;;;5056597;28;20463;-47
2022/12/19 11:21:22;;;;;;;6.85;5.88;;;21.20;35.80;;;;;;5058084;28;20464;-51
2022/12/19 11:24:03;;;;;;;7.18;5.47;;;21.20;35.90;;;;;;5034124;28;20029;-54
2022/12/19 11:26:44;;;;;;;8.13;6.40;;;21.20;35.90;;;;;;5044939;28;20094;-53
2022/12/19 11:29:18;;;;;;;8.10;5.93;;;21.20;36.00;;;;;;5046245;28;20339;-55
2022/12/19 11:31:46;;;;;;;7.87;6.40;;;21.20;36.00;;;;;;5044792;28;20037;-53
2022/12/19 11:34:24;;;;;;;7.55;6.55;;;21.20;36.00;;;;;;5046919;28;20033;-51
2022/12/19 11:36:55;;;;;;;10.20;8.48;;;21.20;36.10;;;;;;5044376;28;20025;-51
2022/12/19 11:39:26;;;;;;;9.90;8.27;;;21.20;36.20;;;;;;5044646;28;20348;-48
2022/12/19 11:42:23;;;;;;;12.13;9.80;;;21.20;36.30;;;;;;5028260;28;20040;-49
2022/12/19 11:45:15;;;;;;;12.23;9.57;;;21.20;36.30;;;;;;5057314;28;20037;-49
2022/12/19 11:47:53;;;;;;;11.52;9.85;;;21.20;36.40;;;;;;5023382;28;20051;-53
2022/12/19 11:50:31;;;;;;;13.52;10.57;;;21.20;36.40;;;;;;5057472;28;20486;-54
2022/12/19 11:53:29;;;;;;;11.95;10.45;;;21.20;36.50;;;;;;5039620;28;20033;-47
2022/12/19 11:56:07;;;;;;;12.10;10.38;;;21.20;36.50;;;;;;5055866;28;20053;-54
2022/12/19 11:58:33;;;;;;;12.48;10.43;;;21.20;36.50;;;;;;5051371;28;20037;-52
2022/12/19 12:01:20;;;;;;;15.93;11.25;;;21.20;36.60;;;;;;5035288;28;20040;-52
2022/12/19 12:04:22;;;;;;;12.60;10.85;;;21.20;36.60;;;;;;5049435;28;20110;-50
2022/12/19 12:06:52;;;;;;;13.02;10.82;;;21.20;36.70;;;;;;5051508;28;20041;-49
2022/12/19 12:09:33;;;;;;;12.35;10.35;;;21.20;36.70;;;;;;5052250;28;20035;-49
2022/12/19 12:12:23;;;;;;;12.48;10.57;;;21.20;36.70;;;;;;5048759;28;20029;-52
2022/12/19 12:15:11;;;;;;;13.52;11.57;;;21.20;36.70;;;;;;5050121;28;20668;-50
2022/12/19 12:17:54;;;;;;;15.95;11.93;;;21.20;36.80;;;;;;5053434;28;20464;-49
2022/12/19 12:20:43;;;;;;;13.43;11.90;;;21.20;36.90;;;;;;5037639;28;20068;-50
2022/12/19 12:23:22;;;;;;;14.82;12.57;;;21.20;37.00;;;;;;5052741;28;20035;-50
2022/12/19 12:25:56;;;;;;;15.55;12.40;;;21.20;37.00;;;;;;5049759;28;20056;-51
2022/12/19 12:28:46;;;;;;;13.98;12.38;;;21.20;37.00;;;;;;5047862;28;20055;-54
2022/12/19 12:31:36;;;;;;;12.95;11.18;;;21.20;37.10;;;;;;5049842;28;20025;-54
2022/12/19 12:34:39;;;;;;;13.68;11.02;;;21.20;37.10;;;;;;5049949;28;21569;-50
2022/12/19 12:37:22;;;;;;;12.93;10.65;;;21.20;36.90;;;;;;5050130;28;20098;-54
2022/12/19 12:40:15;;;;;;;10.38;9.15;;;21.30;36.90;;;;;;5048417;28;20373;-56
2022/12/19 12:43:00;;;;;;;12.38;10.48;;;21.20;36.90;;;;;;5049234;28;20044;-50
2022/12/19 12:45:38;;;;;;;12.13;9.63;;;21.20;36.90;;;;;;5045896;28;20025;-54
2022/12/19 12:48:32;;;;;;;13.32;11.23;;;21.30;37.00;;;;;;5048745;28;21589;-51
2022/12/19 12:50:59;;;;;;;13.13;10.52;;;21.20;37.00;;;;;;5046521;28;20028;-48
2022/12/19 12:53:31;;;;;;;13.45;11.10;;;21.20;37.00;;;;;;5048689;28;20044;-52
2022/12/19 12:56:01;;;;;;;13.07;10.68;;;21.20;37.00;;;;;;5047842;28;20407;-51
2022/12/19 12:58:48;;;;;;;17.38;11.80;;;21.30;37.00;;;;;;5050465;28;20029;-51
2022/12/19 13:01:32;;;;;;;16.75;13.85;;;21.30;37.10;;;;;;4999944;28;20056;-55
2022/12/19 13:04:07;;;;;;;17.80;15.20;;;21.30;37.20;;;;;;5030609;28;20078;-53
2022/12/19 13:06:34;;;;;;;19.33;16.10;;;21.30;37.20;;;;;;5048628;28;20357;-49
2022/12/19 13:09:26;;;;;;;16.75;14.45;;;21.30;37.30;;;;;;5047075;28;20417;-52
2022/12/19 13:14:49;;;;;;;18.35;13.07;;;21.30;37.10;;;;;;5045671;28;20459;-54